Time;durP1;ratioP1;P1;durP2;ratioP2;P2;SDS_P1;SDS_P2;PMS_P1;PMS_P2;Temp;Humidity;BMP_temperature;BMP_pressure;BME280_temperature;BME280_humidity;BME280_pressure;Samples;Min_cycle;Max_cycle;Signal;HPM_P1;HPM_P2
2023/09/16 00:01:39;;;;;;;3.78;1.85;;;21.20;88.60;;;;;;5095126;28;20020;-78
2023/09/16 00:04:05;;;;;;;2.25;1.50;;;21.20;88.70;;;;;;5094040;28;20062;-78
2023/09/16 00:06:30;;;;;;;2.90;1.67;;;21.20;88.70;;;;;;5093943;28;20439;-78
2023/09/16 00:08:56;;;;;;;3.20;1.95;;;21.20;88.70;;;;;;5093862;28;20024;-77
2023/09/16 00:11:22;;;;;;;3.17;1.77;;;21.20;88.70;;;;;;5094025;28;20032;-78
2023/09/16 00:13:48;;;;;;;3.47;1.98;;;21.20;88.90;;;;;;5093626;28;20036;-77
2023/09/16 00:16:15;;;;;;;3.63;1.98;;;21.20;88.90;;;;;;5094025;28;20503;-78
2023/09/16 00:18:41;;;;;;;2.13;1.45;;;21.20;89.40;;;;;;5094671;28;20016;-78
2023/09/16 00:21:07;;;;;;;4.20;1.80;;;21.20;88.80;;;;;;5093042;28;20111;-77
2023/09/16 00:23:32;;;;;;;2.97;1.80;;;21.30;88.80;;;;;;5093492;28;20119;-78
2023/09/16 00:25:58;;;;;;;3.47;1.88;;;21.30;88.80;;;;;;5094737;28;20087;-78
2023/09/16 00:28:27;;;;;;;3.05;1.80;;;21.30;88.70;;;;;;5093409;28;20024;-78
2023/09/16 00:30:52;;;;;;;4.88;1.80;;;21.30;88.70;;;;;;5094807;28;20024;-77
2023/09/16 00:33:18;;;;;;;3.08;1.77;;;21.40;88.80;;;;;;5094661;28;20035;-77
2023/09/16 00:35:43;;;;;;;2.72;1.80;;;21.30;88.70;;;;;;5093284;28;20139;-77
2023/09/16 00:38:09;;;;;;;3.50;1.92;;;21.30;88.70;;;;;;5094356;28;20028;-78
2023/09/16 00:40:38;;;;;;;5.07;1.95;;;21.20;88.60;;;;;;5093369;28;20016;-77
2023/09/16 00:43:04;;;;;;;3.20;1.83;;;21.20;88.60;;;;;;5093138;28;20119;-77
2023/09/16 00:45:29;;;;;;;3.55;1.98;;;21.20;88.60;;;;;;5093408;28;20449;-77
2023/09/16 00:47:55;;;;;;;3.45;1.67;;;21.20;88.70;;;;;;5094392;28;20555;-78
2023/09/16 00:50:21;;;;;;;2.83;1.80;;;21.20;88.80;;;;;;5094495;28;20047;-77
2023/09/16 00:52:56;;;;;;;3.20;1.88;;;21.20;88.80;;;;;;5093105;28;20031;-78
2023/09/16 00:55:22;;;;;;;4.00;1.67;;;21.10;88.90;;;;;;5092937;28;20087;-77
2023/09/16 00:57:50;;;;;;;3.67;1.60;;;21.20;88.90;;;;;;5092368;28;20032;-78
2023/09/16 01:00:16;;;;;;;2.88;1.77;;;21.20;88.90;;;;;;5094175;28;20021;-79
2023/09/16 01:02:45;;;;;;;5.97;2.17;;;21.20;89.00;;;;;;5092913;28;20024;-79
2023/09/16 01:05:17;;;;;;;2.80;1.70;;;21.20;89.00;;;;;;5092980;28;20069;-77
2023/09/16 01:07:45;;;;;;;3.53;1.85;;;21.20;89.00;;;;;;5093681;28;20048;-77
2023/09/16 01:10:11;;;;;;;3.10;1.90;;;21.20;89.10;;;;;;5092548;28;20063;-77
2023/09/16 01:12:38;;;;;;;2.55;1.70;;;21.20;89.10;;;;;;5094153;28;20500;-78
2023/09/16 01:15:06;;;;;;;3.03;1.70;;;21.20;89.00;;;;;;5093685;28;20028;-77
2023/09/16 01:17:36;;;;;;;3.58;1.80;;;21.20;89.00;;;;;;5092243;28;20020;-78
2023/09/16 01:20:06;;;;;;;3.47;1.87;;;21.20;88.90;;;;;;5094194;28;20016;-78
2023/09/16 01:22:34;;;;;;;3.85;2.00;;;21.20;88.90;;;;;;5092657;28;20297;-77
2023/09/16 01:25:05;;;;;;;3.03;1.80;;;21.30;88.80;;;;;;5093752;28;20028;-78
2023/09/16 01:27:30;;;;;;;4.25;1.80;;;21.20;88.80;;;;;;5093594;28;20048;-78
2023/09/16 01:29:56;;;;;;;3.65;2.08;;;21.20;88.80;;;;;;5093756;28;20117;-78
2023/09/16 01:32:34;;;;;;;2.95;1.70;;;21.20;88.70;;;;;;5092366;28;20490;-78
2023/09/16 01:35:06;;;;;;;2.88;1.80;;;21.20;88.90;;;;;;5092379;28;20364;-78
2023/09/16 01:37:33;;;;;;;2.75;1.75;;;21.20;88.80;;;;;;5091794;28;20161;-77
2023/09/16 01:40:07;;;;;;;3.58;2.03;;;21.20;88.80;;;;;;5092128;28;20439;-77
2023/09/16 01:42:34;;;;;;;2.75;1.75;;;21.20;88.90;;;;;;5092162;28;20023;-78
2023/09/16 01:45:01;;;;;;;2.83;1.67;;;21.20;89.00;;;;;;5093186;28;20024;-78
2023/09/16 01:47:26;;;;;;;3.22;2.03;;;21.20;89.00;;;;;;5091781;28;20035;-77
2023/09/16 01:49:52;;;;;;;3.60;2.03;;;21.20;89.00;;;;;;5091987;28;20016;-80
2023/09/16 01:52:17;;;;;;;4.35;2.00;;;21.20;89.10;;;;;;5091847;28;20106;-77
2023/09/16 01:54:43;;;;;;;3.50;1.95;;;21.20;89.10;;;;;;5091610;28;20055;-79
2023/09/16 01:57:08;;;;;;;3.28;1.75;;;21.20;89.10;;;;;;5091484;28;20028;-76
2023/09/16 01:59:34;;;;;;;2.90;1.80;;;21.20;89.10;;;;;;5092707;28;20456;-78
2023/09/16 02:02:00;;;;;;;3.35;2.00;;;21.10;89.10;;;;;;5093309;28;20077;-78
2023/09/16 02:04:25;;;;;;;3.15;1.90;;;21.10;89.20;;;;;;5092972;28;20059;-78
2023/09/16 02:06:51;;;;;;;2.58;1.80;;;21.20;89.30;;;;;;5091606;28;20023;-78
2023/09/16 02:09:16;;;;;;;6.07;2.17;;;21.20;89.30;;;;;;5091439;28;20024;-77
2023/09/16 02:11:42;;;;;;;2.70;1.75;;;21.20;89.20;;;;;;5091690;28;20031;-77
2023/09/16 02:14:20;;;;;;;3.08;1.77;;;21.20;89.10;;;;;;5091297;28;20127;-77
2023/09/16 02:16:45;;;;;;;2.80;1.77;;;21.20;89.10;;;;;;5091341;28;20024;-78
2023/09/16 02:19:11;;;;;;;2.70;1.80;;;21.20;89.00;;;;;;5092553;28;20039;-78
2023/09/16 02:21:37;;;;;;;2.88;1.80;;;21.20;89.00;;;;;;5092794;28;20024;-77
2023/09/16 02:24:03;;;;;;;2.80;1.80;;;21.20;88.90;;;;;;5092513;28;20035;-77
2023/09/16 02:26:29;;;;;;;3.35;1.92;;;21.20;89.00;;;;;;5091518;28;20110;-77
2023/09/16 02:28:54;;;;;;;3.63;2.15;;;21.20;89.00;;;;;;5090921;28;20217;-77
2023/09/16 02:31:20;;;;;;;2.80;1.80;;;21.20;89.00;;;;;;5092551;28;20036;-79
2023/09/16 02:33:45;;;;;;;2.95;1.77;;;21.20;89.00;;;;;;5091110;28;20024;-77
2023/09/16 02:36:11;;;;;;;4.43;2.00;;;21.20;89.00;;;;;;5091102;28;20040;-76
2023/09/16 02:38:36;;;;;;;3.47;1.83;;;21.20;89.00;;;;;;5090718;28;20107;-79
2023/09/16 02:41:03;;;;;;;3.05;1.80;;;21.10;89.10;;;;;;5092438;28;20024;-77
2023/09/16 02:43:29;;;;;;;3.10;1.90;;;21.10;89.00;;;;;;5091119;28;20028;-77
2023/09/16 02:45:58;;;;;;;3.47;1.95;;;21.10;89.10;;;;;;5090591;28;20588;-77
2023/09/16 02:48:24;;;;;;;3.35;2.10;;;21.10;89.10;;;;;;5092176;28;20069;-77
2023/09/16 02:50:49;;;;;;;3.55;1.80;;;21.10;89.20;;;;;;5090877;28;20028;-77
2023/09/16 02:53:18;;;;;;;3.72;2.00;;;21.10;89.20;;;;;;5090984;28;20093;-77
2023/09/16 02:55:44;;;;;;;3.13;1.80;;;21.10;89.20;;;;;;5090810;28;20077;-78
2023/09/16 02:58:09;;;;;;;3.78;2.00;;;21.10;89.20;;;;;;5086047;28;20024;-77
2023/09/16 03:00:35;;;;;;;3.92;2.00;;;21.10;89.40;;;;;;5100152;28;20016;-76
2023/09/16 03:03:00;;;;;;;3.00;1.98;;;21.10;89.30;;;;;;5110815;28;20387;-77
2023/09/16 03:05:26;;;;;;;4.78;1.90;;;21.10;89.30;;;;;;5111160;28;20016;-78
2023/09/16 03:07:51;;;;;;;3.67;2.00;;;21.10;89.80;;;;;;5110876;28;20028;-77
2023/09/16 03:10:17;;;;;;;3.28;1.90;;;21.20;89.20;;;;;;5111198;28;20026;-77
2023/09/16 03:12:42;;;;;;;3.45;2.10;;;21.20;89.20;;;;;;5112289;28;20476;-77
2023/09/16 03:15:10;;;;;;;3.50;2.00;;;21.20;89.10;;;;;;5112398;28;20095;-77
2023/09/16 03:17:35;;;;;;;3.42;2.00;;;21.20;89.10;;;;;;5111069;28;20024;-77
2023/09/16 03:20:01;;;;;;;3.33;2.05;;;21.20;89.00;;;;;;5111111;28;20533;-77
2023/09/16 03:22:26;;;;;;;3.63;2.10;;;21.20;89.10;;;;;;5112387;28;20055;-77
2023/09/16 03:24:52;;;;;;;4.00;2.00;;;21.20;89.00;;;;;;5111035;28;20019;-77
2023/09/16 03:27:17;;;;;;;2.70;1.70;;;21.20;89.10;;;;;;5110954;28;20031;-77
2023/09/16 03:29:43;;;;;;;2.97;1.83;;;21.20;89.10;;;;;;5112112;28;20058;-77
2023/09/16 03:32:08;;;;;;;3.47;2.20;;;21.10;89.10;;;;;;5112353;28;20487;-77
2023/09/16 03:34:34;;;;;;;3.42;2.08;;;21.10;89.20;;;;;;5112329;28;20418;-79
2023/09/16 03:36:59;;;;;;;3.53;2.00;;;21.10;89.20;;;;;;5110620;28;20036;-78
2023/09/16 03:39:25;;;;;;;3.10;1.90;;;21.10;89.20;;;;;;5112013;28;20098;-77
2023/09/16 03:41:50;;;;;;;2.88;1.98;;;21.10;89.60;;;;;;5110815;28;20027;-78
2023/09/16 03:44:16;;;;;;;4.45;1.90;;;21.10;89.30;;;;;;5110946;28;20391;-78
2023/09/16 03:46:41;;;;;;;3.22;2.00;;;21.10;89.30;;;;;;5110938;28;20027;-77
2023/09/16 03:49:07;;;;;;;4.15;1.90;;;21.10;89.40;;;;;;5110677;28;20050;-77
2023/09/16 03:51:40;;;;;;;3.25;2.00;;;21.10;89.30;;;;;;5110862;28;20572;-79
2023/09/16 03:54:06;;;;;;;2.92;2.00;;;21.10;89.80;;;;;;5110804;28;20387;-77
2023/09/16 03:56:32;;;;;;;3.65;2.17;;;21.10;89.50;;;;;;5111377;28;20047;-76
2023/09/16 03:58:58;;;;;;;3.55;1.95;;;21.10;89.50;;;;;;5113930;28;20572;-78
2023/09/16 04:01:23;;;;;;;3.83;2.10;;;21.10;89.40;;;;;;5115821;28;20149;-77
2023/09/16 04:03:49;;;;;;;3.13;1.77;;;21.10;89.40;;;;;;5115491;28;20042;-78
2023/09/16 04:06:15;;;;;;;2.85;1.70;;;21.10;89.40;;;;;;5114379;28;20024;-77
2023/09/16 04:08:40;;;;;;;3.63;2.10;;;21.10;89.30;;;;;;5115246;28;20023;-76
2023/09/16 04:11:06;;;;;;;3.15;2.00;;;21.20;89.20;;;;;;5115777;28;20521;-79
2023/09/16 04:13:32;;;;;;;3.00;1.90;;;21.20;89.20;;;;;;5115309;28;20020;-76
2023/09/16 04:15:57;;;;;;;3.42;2.00;;;21.10;89.10;;;;;;5115492;28;20071;-78
2023/09/16 04:18:23;;;;;;;3.63;1.98;;;21.10;89.10;;;;;;5113830;28;20315;-76
2023/09/16 04:20:50;;;;;;;3.40;2.03;;;21.00;89.00;;;;;;5115351;28;20387;-77
2023/09/16 04:23:16;;;;;;;3.38;2.08;;;21.10;89.10;;;;;;5114097;28;20038;-77
2023/09/16 04:25:41;;;;;;;4.53;2.10;;;21.10;89.20;;;;;;5114092;28;20019;-78
2023/09/16 04:28:07;;;;;;;3.72;2.00;;;21.10;89.30;;;;;;5113853;28;20019;-78
2023/09/16 04:30:45;;;;;;;4.32;2.10;;;21.10;89.20;;;;;;5113839;28;20036;-78
2023/09/16 04:33:11;;;;;;;3.30;2.05;;;21.10;89.40;;;;;;5114108;28;20027;-77
2023/09/16 04:35:43;;;;;;;3.72;2.30;;;21.10;89.30;;;;;;5113723;28;20399;-77
2023/09/16 04:38:09;;;;;;;3.28;2.00;;;21.10;89.40;;;;;;5113419;28;20027;-77
2023/09/16 04:40:34;;;;;;;3.83;2.00;;;21.00;89.40;;;;;;5114972;28;20039;-77
2023/09/16 04:43:00;;;;;;;2.83;2.00;;;21.00;89.40;;;;;;5113558;28;20020;-77
2023/09/16 04:45:26;;;;;;;4.35;2.10;;;21.10;89.50;;;;;;5115121;28;20120;-77
2023/09/16 04:47:52;;;;;;;3.47;2.08;;;21.00;89.40;;;;;;5113137;28;20027;-78
2023/09/16 04:50:18;;;;;;;3.42;2.10;;;21.00;89.60;;;;;;5113793;28;20030;-77
2023/09/16 04:52:43;;;;;;;3.22;2.08;;;21.00;89.60;;;;;;5114741;28;20182;-77
2023/09/16 04:55:09;;;;;;;3.63;2.10;;;21.10;89.60;;;;;;5113279;28;20027;-77
2023/09/16 04:57:35;;;;;;;3.20;1.90;;;21.10;89.60;;;;;;5103108;28;20030;-78
2023/09/16 05:00:05;;;;;;;3.53;2.03;;;21.10;89.50;;;;;;5106034;28;20111;-78
2023/09/16 05:02:32;;;;;;;3.05;1.90;;;21.10;89.50;;;;;;5108420;28;20441;-77
2023/09/16 05:04:57;;;;;;;3.35;2.10;;;21.10;89.40;;;;;;5114466;28;20077;-77
2023/09/16 05:07:23;;;;;;;3.15;1.90;;;21.10;89.40;;;;;;5112660;28;20020;-77
2023/09/16 05:09:48;;;;;;;2.97;1.95;;;21.10;89.20;;;;;;5112950;28;20597;-78
2023/09/16 05:12:14;;;;;;;3.35;2.08;;;21.10;89.30;;;;;;5105235;28;20059;-77
2023/09/16 05:14:39;;;;;;;3.13;2.03;;;21.10;89.30;;;;;;5100187;28;20577;-77
2023/09/16 05:17:05;;;;;;;2.97;1.98;;;21.10;89.30;;;;;;5104708;28;20019;-78
2023/09/16 05:19:31;;;;;;;3.78;2.03;;;21.10;89.80;;;;;;5113055;28;20028;-77
2023/09/16 05:21:56;;;;;;;3.47;1.98;;;21.00;89.30;;;;;;5114332;28;20467;-78
2023/09/16 05:24:22;;;;;;;3.92;2.33;;;21.10;89.40;;;;;;5112810;28;20164;-78
2023/09/16 05:26:48;;;;;;;3.58;2.00;;;21.00;89.40;;;;;;5112860;28;20483;-77
2023/09/16 05:29:13;;;;;;;3.45;1.92;;;21.00;89.40;;;;;;5112640;28;20563;-77
2023/09/16 05:31:39;;;;;;;2.53;1.73;;;21.00;89.40;;;;;;5112875;28;20030;-78
2023/09/16 05:34:05;;;;;;;3.30;2.03;;;21.00;89.50;;;;;;5112815;28;20028;-77
2023/09/16 05:36:32;;;;;;;3.60;2.03;;;21.00;89.50;;;;;;5112586;28;20036;-77
2023/09/16 05:38:58;;;;;;;3.60;2.13;;;21.00;89.50;;;;;;5112202;28;20410;-77
2023/09/16 05:41:24;;;;;;;3.25;1.95;;;21.00;89.50;;;;;;5112673;28;20020;-78
2023/09/16 05:43:49;;;;;;;3.50;2.00;;;21.00;89.50;;;;;;5112606;28;20020;-77
2023/09/16 05:46:15;;;;;;;4.15;2.08;;;21.00;89.70;;;;;;5112513;28;20027;-78
2023/09/16 05:48:41;;;;;;;3.83;2.13;;;21.00;89.70;;;;;;5112167;28;20403;-77
2023/09/16 05:51:08;;;;;;;3.53;2.08;;;21.00;89.70;;;;;;5112491;28;20019;-77
2023/09/16 05:53:34;;;;;;;2.63;1.77;;;21.00;89.60;;;;;;5112247;28;20035;-77
2023/09/16 05:56:04;;;;;;;3.70;2.13;;;21.00;89.60;;;;;;5113256;28;20031;-78
2023/09/16 05:58:30;;;;;;;3.03;2.08;;;21.10;89.50;;;;;;5113426;28;20383;-77
2023/09/16 06:00:57;;;;;;;2.85;1.90;;;21.10;89.40;;;;;;5112245;28;20015;-77
2023/09/16 06:03:23;;;;;;;4.13;1.95;;;21.10;89.40;;;;;;5112141;28;20046;-78
2023/09/16 06:05:48;;;;;;;3.65;2.15;;;21.10;89.40;;;;;;5113714;28;20476;-78
2023/09/16 06:08:14;;;;;;;3.38;2.10;;;21.10;89.30;;;;;;5112987;28;20529;-77
2023/09/16 06:10:40;;;;;;;4.45;2.17;;;21.10;89.30;;;;;;5111824;28;20028;-78
2023/09/16 06:13:05;;;;;;;5.05;2.53;;;21.00;89.30;;;;;;5112229;28;20019;-78
2023/09/16 06:15:31;;;;;;;3.70;2.17;;;21.10;89.40;;;;;;5111936;28;20076;-78
2023/09/16 06:17:56;;;;;;;3.55;2.30;;;21.00;89.40;;;;;;5111697;28;20547;-78
2023/09/16 06:20:22;;;;;;;3.00;2.10;;;21.00;89.40;;;;;;5111107;28;20023;-77
2023/09/16 06:22:47;;;;;;;2.85;1.92;;;21.00;89.50;;;;;;5111707;28;20053;-77
2023/09/16 06:25:14;;;;;;;3.72;2.00;;;21.00;89.50;;;;;;5111886;28;20015;-77
2023/09/16 06:27:39;;;;;;;3.38;2.00;;;21.00;89.50;;;;;;5112787;28;20024;-77
2023/09/16 06:30:05;;;;;;;3.33;1.98;;;21.00;89.50;;;;;;5113325;28;20083;-79
2023/09/16 06:32:31;;;;;;;3.58;2.30;;;21.00;89.50;;;;;;5112915;28;20580;-78
2023/09/16 06:34:56;;;;;;;3.03;1.92;;;21.00;89.40;;;;;;5111613;28;20023;-77
2023/09/16 06:37:22;;;;;;;4.07;1.90;;;21.10;89.50;;;;;;5111400;28;20036;-77
2023/09/16 06:39:48;;;;;;;2.85;1.98;;;21.10;89.50;;;;;;5111676;28;20052;-78
2023/09/16 06:42:14;;;;;;;3.13;1.88;;;21.10;89.50;;;;;;5111528;28;20107;-78
2023/09/16 06:44:39;;;;;;;3.67;2.03;;;21.10;89.40;;;;;;5112729;28;20031;-77
2023/09/16 06:47:05;;;;;;;2.90;1.80;;;21.20;89.20;;;;;;5111306;28;20111;-77
2023/09/16 06:49:30;;;;;;;3.17;1.95;;;21.20;89.00;;;;;;5112470;28;20031;-77
2023/09/16 06:51:56;;;;;;;3.28;2.13;;;21.20;88.80;;;;;;5112788;28;20102;-77
2023/09/16 06:54:22;;;;;;;3.55;2.10;;;21.30;88.50;;;;;;5111411;28;20434;-78
2023/09/16 06:56:47;;;;;;;2.85;1.85;;;21.30;88.20;;;;;;5111478;28;20655;-77
2023/09/16 06:59:13;;;;;;;3.85;2.10;;;21.40;88.20;;;;;;5112556;28;20552;-77
2023/09/16 07:01:39;;;;;;;3.45;2.17;;;21.40;88.10;;;;;;5111219;28;20016;-77
2023/09/16 07:04:04;;;;;;;3.00;2.00;;;21.40;88.00;;;;;;5112470;28;20031;-78
2023/09/16 07:06:30;;;;;;;3.40;2.00;;;21.40;88.00;;;;;;5111143;28;20016;-77
2023/09/16 07:08:55;;;;;;;2.88;1.90;;;21.40;87.90;;;;;;5111302;28;20088;-78
2023/09/16 07:11:21;;;;;;;3.00;1.90;;;21.40;87.90;;;;;;5111166;28;20031;-78
2023/09/16 07:13:46;;;;;;;3.45;2.00;;;21.40;87.90;;;;;;5112449;28;20368;-77
2023/09/16 07:16:13;;;;;;;3.38;2.15;;;21.50;87.90;;;;;;5111465;28;20030;-77
2023/09/16 07:18:39;;;;;;;3.47;2.10;;;21.50;87.80;;;;;;5112440;28;20027;-77
2023/09/16 07:21:05;;;;;;;3.42;2.00;;;21.50;87.60;;;;;;5111105;28;20016;-77
2023/09/16 07:23:30;;;;;;;3.55;2.08;;;21.60;87.60;;;;;;5111007;28;20020;-78
2023/09/16 07:25:57;;;;;;;3.40;2.03;;;21.60;87.50;;;;;;5111104;28;20031;-77
2023/09/16 07:28:24;;;;;;;5.07;2.20;;;21.60;87.50;;;;;;5110811;28;20070;-78
2023/09/16 07:30:50;;;;;;;4.32;2.20;;;21.60;87.30;;;;;;5112154;28;20059;-78
2023/09/16 07:33:16;;;;;;;4.72;2.42;;;21.60;87.30;;;;;;5116287;28;20047;-77
2023/09/16 07:35:41;;;;;;;2.90;1.90;;;21.60;87.20;;;;;;5114880;28;20066;-76
2023/09/16 07:38:08;;;;;;;3.65;2.03;;;21.60;87.30;;;;;;5114774;28;20491;-77
2023/09/16 07:40:35;;;;;;;3.42;2.30;;;21.70;87.30;;;;;;5114835;28;20024;-77
2023/09/16 07:43:01;;;;;;;4.07;2.30;;;21.70;87.30;;;;;;5115120;28;20096;-78
2023/09/16 07:45:27;;;;;;;3.13;2.03;;;21.80;87.10;;;;;;5114802;28;20020;-79
2023/09/16 07:47:53;;;;;;;3.53;2.13;;;21.80;87.00;;;;;;5114803;28;20027;-77
2023/09/16 07:50:19;;;;;;;3.85;2.33;;;21.80;86.90;;;;;;5116127;27;20066;-77
2023/09/16 07:52:44;;;;;;;3.17;2.20;;;21.80;86.70;;;;;;5114475;28;20039;-78
2023/09/16 07:55:10;;;;;;;3.13;2.03;;;21.90;86.60;;;;;;5114660;28;20041;-77
2023/09/16 07:57:36;;;;;;;3.38;2.17;;;21.90;86.50;;;;;;5114227;28;20031;-77
2023/09/16 08:00:07;;;;;;;3.22;2.00;;;22.10;86.60;;;;;;5114750;28;20016;-78
2023/09/16 08:02:33;;;;;;;3.85;2.40;;;21.90;86.30;;;;;;5115819;28;20106;-77
2023/09/16 08:04:59;;;;;;;4.07;2.45;;;21.90;86.30;;;;;;5114690;28;20031;-78
2023/09/16 08:07:24;;;;;;;4.00;2.38;;;21.90;86.30;;;;;;5115673;28;20020;-78
2023/09/16 08:09:50;;;;;;;3.53;2.28;;;22.00;86.30;;;;;;5114286;28;20020;-77
2023/09/16 08:12:17;;;;;;;4.05;2.42;;;22.00;86.30;;;;;;5114415;28;20280;-77
2023/09/16 08:14:43;;;;;;;4.25;2.58;;;22.00;86.20;;;;;;5115291;28;20026;-78
2023/09/16 08:17:08;;;;;;;3.95;2.50;;;22.00;86.30;;;;;;5114046;28;20383;-77
2023/09/16 08:19:34;;;;;;;2.92;2.00;;;22.00;86.30;;;;;;5114078;28;20023;-77
2023/09/16 08:21:59;;;;;;;3.75;2.35;;;22.00;86.30;;;;;;5114270;28;20020;-77
2023/09/16 08:24:25;;;;;;;3.13;2.17;;;22.00;86.30;;;;;;5115428;28;20102;-78
2023/09/16 08:26:50;;;;;;;4.38;2.50;;;22.10;86.30;;;;;;5113831;28;20020;-78
2023/09/16 08:29:16;;;;;;;4.07;2.47;;;22.10;86.20;;;;;;5115075;28;20479;-77
2023/09/16 08:31:41;;;;;;;4.10;2.50;;;22.10;86.10;;;;;;5113905;28;20027;-77
2023/09/16 08:34:08;;;;;;;3.85;2.38;;;22.10;86.00;;;;;;5113745;28;20071;-78
2023/09/16 08:36:34;;;;;;;6.65;2.38;;;22.20;86.00;;;;;;5113584;28;20035;-78
2023/09/16 08:38:59;;;;;;;4.28;2.50;;;22.20;86.00;;;;;;5113467;28;20034;-78
2023/09/16 08:41:36;;;;;;;4.28;2.50;;;22.20;86.00;;;;;;5113742;28;20020;-77
2023/09/16 08:44:04;;;;;;;3.35;2.25;;;22.20;85.80;;;;;;5112943;28;20476;-78
2023/09/16 08:46:33;;;;;;;3.53;2.28;;;22.30;85.80;;;;;;5114786;28;20023;-79
2023/09/16 08:49:03;;;;;;;3.65;2.28;;;22.30;85.60;;;;;;5113448;28;20028;-78
2023/09/16 08:51:31;;;;;;;3.95;2.47;;;22.30;85.50;;;;;;5114680;28;20036;-78
2023/09/16 08:54:00;;;;;;;3.80;2.20;;;22.30;85.40;;;;;;5113400;28;20055;-78
2023/09/16 08:56:27;;;;;;;6.15;2.80;;;22.40;85.40;;;;;;5116615;28;20471;-77
2023/09/16 08:58:55;;;;;;;5.80;3.47;;;22.30;84.50;;;;;;5116337;28;20396;-77
2023/09/16 09:01:20;;;;;;;8.32;4.07;;;22.20;81.00;;;;;;5115472;28;20024;-77
2023/09/16 09:03:46;;;;;;;7.10;3.97;;;22.10;80.70;;;;;;5114376;28;20390;-77
2023/09/16 09:06:13;;;;;;;6.32;3.67;;;22.10;81.50;;;;;;5114211;28;20498;-77
2023/09/16 09:08:39;;;;;;;7.35;3.58;;;22.10;81.20;;;;;;5113835;28;20513;-77
2023/09/16 09:11:06;;;;;;;6.35;3.70;;;22.20;81.50;;;;;;5113788;28;20027;-77
2023/09/16 09:13:32;;;;;;;6.53;3.22;;;22.20;81.70;;;;;;5113821;28;20396;-77
2023/09/16 09:16:00;;;;;;;7.72;3.47;;;22.20;81.80;;;;;;5115391;28;20198;-77
2023/09/16 09:18:28;;;;;;;6.35;3.13;;;22.30;82.20;;;;;;5114843;28;20546;-77
2023/09/16 09:20:54;;;;;;;6.47;3.28;;;22.30;82.20;;;;;;5113779;28;20040;-77
2023/09/16 09:23:19;;;;;;;6.47;3.30;;;22.30;82.40;;;;;;5113734;28;20127;-77
2023/09/16 09:25:45;;;;;;;9.35;3.47;;;22.30;82.60;;;;;;5113902;28;20027;-77
2023/09/16 09:28:13;;;;;;;5.43;3.38;;;22.30;82.70;;;;;;5113485;28;20027;-77
2023/09/16 09:30:43;;;;;;;6.63;3.35;;;22.40;83.00;;;;;;5114569;28;20035;-78
2023/09/16 09:33:18;;;;;;;6.13;3.30;;;22.40;83.10;;;;;;5112982;28;20027;-79
2023/09/16 09:35:44;;;;;;;7.85;3.22;;;22.40;83.10;;;;;;5112744;28;20034;-77
2023/09/16 09:38:10;;;;;;;6.45;3.55;;;22.40;83.30;;;;;;5113069;28;20031;-78
2023/09/16 09:40:35;;;;;;;5.60;3.25;;;22.40;83.40;;;;;;5114101;28;20024;-78
2023/09/16 09:43:01;;;;;;;6.55;3.15;;;22.40;83.50;;;;;;5112938;28;20028;-78
2023/09/16 09:45:29;;;;;;;5.05;3.30;;;22.40;83.60;;;;;;5112814;28;20020;-78
2023/09/16 09:47:55;;;;;;;6.60;3.00;;;22.40;83.80;;;;;;5113931;28;20476;-77
2023/09/16 09:50:22;;;;;;;4.57;3.17;;;22.40;83.80;;;;;;5113931;28;20498;-77
2023/09/16 09:52:55;;;;;;;6.70;3.35;;;22.40;84.00;;;;;;5113716;28;20039;-77
2023/09/16 09:55:23;;;;;;;5.45;3.13;;;22.40;84.10;;;;;;5111720;28;20502;-77
2023/09/16 09:57:51;;;;;;;6.38;3.03;;;22.40;84.20;;;;;;5111876;28;20024;-77
2023/09/16 10:00:19;;;;;;;5.93;2.97;;;22.40;84.20;;;;;;5114166;28;20605;-78
2023/09/16 10:02:47;;;;;;;4.57;2.95;;;22.50;84.40;;;;;;5112636;28;20028;-77
2023/09/16 10:05:19;;;;;;;4.60;2.85;;;22.40;84.40;;;;;;5112190;28;20020;-77
2023/09/16 10:07:46;;;;;;;5.43;3.17;;;22.40;84.50;;;;;;5112032;28;20506;-77
2023/09/16 10:10:13;;;;;;;5.25;2.85;;;22.40;84.50;;;;;;5112181;28;20023;-78
2023/09/16 10:12:40;;;;;;;4.72;3.00;;;22.50;84.60;;;;;;5111950;28;20050;-77
2023/09/16 10:15:07;;;;;;;5.03;3.10;;;22.40;84.60;;;;;;5114445;28;20066;-78
2023/09/16 10:17:33;;;;;;;5.65;3.10;;;22.40;84.50;;;;;;5111616;28;20053;-77
2023/09/16 10:19:59;;;;;;;4.50;2.65;;;22.50;84.60;;;;;;5112008;28;20024;-79
2023/09/16 10:22:25;;;;;;;4.68;2.40;;;22.50;84.50;;;;;;5112290;28;20507;-77
2023/09/16 10:24:52;;;;;;;4.80;3.05;;;22.50;84.50;;;;;;5111801;28;20058;-77
2023/09/16 10:27:24;;;;;;;4.57;2.75;;;22.60;84.50;;;;;;5113170;28;20031;-77
2023/09/16 10:29:51;;;;;;;4.88;2.80;;;22.50;84.40;;;;;;5111755;28;20361;-77
2023/09/16 10:32:16;;;;;;;5.22;2.80;;;22.50;84.50;;;;;;5113049;28;20027;-77
2023/09/16 10:34:46;;;;;;;5.30;2.97;;;22.50;84.50;;;;;;5112974;28;20019;-76
2023/09/16 10:37:15;;;;;;;4.78;2.67;;;22.50;84.60;;;;;;5112779;28;20135;-76
2023/09/16 10:39:41;;;;;;;5.90;3.35;;;22.50;84.70;;;;;;5111627;28;20019;-77
2023/09/16 10:42:07;;;;;;;4.32;2.90;;;22.50;84.80;;;;;;5111860;28;20015;-77
2023/09/16 10:44:34;;;;;;;4.40;2.80;;;22.50;84.90;;;;;;5111769;28;20023;-77
2023/09/16 10:47:04;;;;;;;5.32;2.80;;;22.50;84.90;;;;;;5111553;28;20111;-76
2023/09/16 10:49:29;;;;;;;4.65;2.88;;;22.50;85.00;;;;;;5111543;28;20419;-78
2023/09/16 10:52:01;;;;;;;4.78;2.88;;;22.50;85.00;;;;;;5111702;28;20039;-77
2023/09/16 10:54:34;;;;;;;4.20;2.80;;;22.40;85.00;;;;;;5111494;28;20099;-77
2023/09/16 10:57:06;;;;;;;4.15;2.83;;;22.40;85.10;;;;;;5111810;28;20020;-76
2023/09/16 10:59:33;;;;;;;4.43;2.72;;;22.50;85.20;;;;;;5111298;28;20104;-78
2023/09/16 11:02:34;;;;;;;4.47;2.80;;;22.50;85.20;;;;;;5112799;28;20030;-78
2023/09/16 11:05:00;;;;;;;5.25;3.00;;;22.50;85.30;;;;;;5112770;27;20030;-76
2023/09/16 11:07:26;;;;;;;4.70;2.83;;;22.50;85.80;;;;;;5116486;28;20487;-76
2023/09/16 11:09:54;;;;;;;4.35;2.72;;;22.50;85.30;;;;;;5115574;28;20024;-77
2023/09/16 11:12:20;;;;;;;3.80;2.45;;;22.50;85.30;;;;;;5115664;28;20016;-76
2023/09/16 11:14:46;;;;;;;5.43;2.95;;;22.50;85.30;;;;;;5116461;28;20544;-77
2023/09/16 11:17:15;;;;;;;4.40;2.53;;;22.50;85.20;;;;;;5115331;28;20032;-77
2023/09/16 11:19:42;;;;;;;4.20;2.75;;;22.50;85.10;;;;;;5115603;28;20023;-77
2023/09/16 11:22:09;;;;;;;4.55;2.60;;;22.50;85.10;;;;;;5115786;28;20027;-77
2023/09/16 11:24:36;;;;;;;4.57;2.80;;;22.50;85.10;;;;;;5115714;28;20111;-77
2023/09/16 11:27:02;;;;;;;4.25;2.65;;;22.50;85.20;;;;;;5116508;28;20019;-76
2023/09/16 11:29:29;;;;;;;4.95;2.70;;;22.50;85.20;;;;;;5115394;28;20391;-77
2023/09/16 11:31:55;;;;;;;4.57;2.80;;;22.40;85.30;;;;;;5116755;28;20055;-76
2023/09/16 11:34:24;;;;;;;5.25;2.80;;;22.40;85.30;;;;;;5115598;28;20056;-77
2023/09/16 11:36:58;;;;;;;4.85;3.00;;;22.50;86.00;;;;;;5115570;28;20403;-76
2023/09/16 11:39:40;;;;;;;4.32;2.70;;;22.50;85.60;;;;;;5116410;28;20483;-77
2023/09/16 11:42:07;;;;;;;4.40;2.80;;;22.40;85.60;;;;;;5115495;28;20160;-76
2023/09/16 11:44:37;;;;;;;4.20;2.55;;;22.40;85.70;;;;;;5115123;28;20027;-78
2023/09/16 11:47:03;;;;;;;5.50;2.90;;;22.40;85.70;;;;;;5115157;28;20495;-76
2023/09/16 11:49:33;;;;;;;4.35;2.55;;;22.40;85.70;;;;;;5115168;28;20112;-76
2023/09/16 11:51:59;;;;;;;4.32;2.88;;;22.40;85.80;;;;;;5115004;28;20031;-77
2023/09/16 11:54:25;;;;;;;4.38;2.53;;;22.40;85.80;;;;;;5116497;28;20020;-76
2023/09/16 11:56:52;;;;;;;4.80;2.47;;;22.40;85.80;;;;;;5116391;28;20119;-77
2023/09/16 11:59:18;;;;;;;4.93;2.60;;;22.40;85.80;;;;;;5114272;28;20027;-77
2023/09/16 12:01:44;;;;;;;5.47;2.60;;;22.40;85.80;;;;;;5116288;28;20085;-77
2023/09/16 12:04:11;;;;;;;4.45;2.67;;;22.40;85.90;;;;;;5116274;28;20089;-77
2023/09/16 12:06:38;;;;;;;4.10;2.60;;;22.40;85.80;;;;;;5114659;28;20023;-76
2023/09/16 12:09:06;;;;;;;4.68;2.85;;;22.40;85.80;;;;;;5114382;28;20081;-78
2023/09/16 12:11:33;;;;;;;5.60;2.60;;;22.40;85.70;;;;;;5114777;28;20020;-78
2023/09/16 12:14:00;;;;;;;3.75;2.33;;;22.40;85.60;;;;;;5115601;28;20036;-78
2023/09/16 12:16:26;;;;;;;4.68;2.50;;;22.40;85.60;;;;;;5114961;28;20559;-77
2023/09/16 12:18:52;;;;;;;3.95;2.55;;;22.40;85.60;;;;;;5114521;28;20399;-77
2023/09/16 12:21:18;;;;;;;3.22;2.22;;;22.40;85.70;;;;;;5115912;28;20012;-77
2023/09/16 12:23:45;;;;;;;4.40;2.50;;;22.40;85.70;;;;;;5115594;28;20016;-77
2023/09/16 12:26:12;;;;;;;4.35;2.42;;;22.40;85.80;;;;;;5114435;28;20024;-77
2023/09/16 12:28:38;;;;;;;4.72;2.92;;;22.40;85.90;;;;;;5114261;28;20043;-78
2023/09/16 12:31:08;;;;;;;5.40;2.78;;;22.40;86.00;;;;;;5114451;28;20051;-76
2023/09/16 12:33:53;;;;;;;4.25;2.60;;;22.30;86.60;;;;;;5114206;28;20110;-77
2023/09/16 12:36:22;;;;;;;3.72;2.40;;;22.30;86.10;;;;;;5114273;28;20116;-76
2023/09/16 12:38:48;;;;;;;4.10;2.42;;;22.30;86.20;;;;;;5114954;28;20438;-78
2023/09/16 12:41:15;;;;;;;3.88;2.53;;;22.30;86.30;;;;;;5114247;28;20020;-77
2023/09/16 12:43:41;;;;;;;4.75;2.63;;;22.30;86.30;;;;;;5114285;28;20016;-77
2023/09/16 12:46:08;;;;;;;3.65;2.40;;;22.30;86.40;;;;;;5115253;28;20016;-77